Glens Falls, NY (12801)

22:32 EDT le 30 août 2014 (GMT -0400)
Glens Falls, NY | Change Station
CLOSE
Current Station
Stations météorologiques personnelles
Location: Glens Falls, NY
Altitude: 331 ft
Stations météo à proximité

Alt. 331 ft 43.31 °N, 73.64 °W | Updated 1 minute ago

Clear
Ciel dégagé
69.4 ° F
Paraît 69.4 ° F
N
2.7
Vent Variable Vent de SSO

Aujourd'hui
Haut(e) -- | Bas -- ° F
--% Risque de précip.
Hier
Haut(e) -- | Bas -- ° F
Precip. -- pouce
6:16 AM 7:33 PM
Lune montante, 26% visible
Pression 30.08 pouce
Visibilité 10.0 Miles terrestres
Nuages Ciel dégagé
Point de rosée 63 ° F
Humidité 80%
Précipitations 0.00 pouce
Profondeur de la couche neigeuse Non disponible.
UV 0 sur 12
Pollen 9.00 sur 12
Qualité de l'air Non disponible.
Flu Activity Non disponible.
METAR KGFL 310153Z AUTO 18003KT 10SM CLR 20/16 A3008 RMK AO2 SLP186 T02000156 $

More Conditions Fewer Conditions

Pression 30.08 pouce
Visibilité 10.0 Miles terrestres
Nuages Ciel dégagé
Point de rosée 63 ° F
Humidité 80%
Précipitations 0.00 pouce
Profondeur de la couche neigeuse Non disponible.
UV 0 sur 12
Pollen 9.00 sur 12
Qualité de l'air Non disponible.
Flu Activity Non disponible.
METAR KGFL 310153Z AUTO 18003KT 10SM CLR 20/16 A3008 RMK AO2 SLP186 T02000156 $

More Conditions Fewer Conditions

10-Day Weather Forecast

Almanac

Astronomie

Aug. 30, 2014 Lever Coucher
Temps réel 06:16 EDT 19:33 EDT
Crépuscule civil 05:46 EDT 20:02 EDT
Crépuscule nautique 05:11 EDT 20:37 EDT
Crépuscule astronomique 04:33 EDT 21:15 EDT
Lune 11:10 EDT (8/30) 21:56 EDT (8/30)
Durée de lumière visible 14h 15m
Longueur du jour
13h 16m
Tomorrow will be 2m 50s shorter.
Lune montante, 26% of the Moon is Illuminated
Aujourd'hui
Lune montante
Sep 2
Premier quartier
Sep 8
Pleine lune
Sep 15
Dernier quartier
Sep 24
Nouveau

Extrêmes aujourd'hui

State Highs State Lows

Community

WunderPhotos

Upload Photos

1,748,748 Photos téléchargées !

Nearby

Qualité de l'air

  Qualité de l'air Indice de la qualité de l'air Polluant
samedi Bon
PM2.5
samedi Bon
OZONE
dimanche Bon
PM2.5
dimanche Bon
OZONE
lundi Moyen
OZONE
lundi Bon
PM2.5
mardi Bon
PM2.5
mardi Bon
OZONE

Épaisseur de neige

Station Depth Altitude
Pas de nouvelles chutes de neige

Activité sismique

Ville Distance Mag. Time & Date
No recent earthquake activity has been reported nearby.
Minimum magnitude displayed is 2.5.

Températures des eaux côtières

Lieu Température
Aucun rapport de station

Stations météo à proximité